sensor_id;sensor_type;location;lat;lon;timestamp;P1;durP1;ratioP1;P2;durP2;ratioP2
5414;SDS011;2730;51.512;7.504;2023-01-19T00:00:01;16.17;;;6.63;;
5414;SDS011;2730;51.512;7.504;2023-01-19T00:02:46;12.20;;;5.60;;
5414;SDS011;2730;51.512;7.504;2023-01-19T00:05:13;12.07;;;6.57;;
5414;SDS011;2730;51.512;7.504;2023-01-19T00:07:40;10.07;;;6.03;;
5414;SDS011;2730;51.512;7.504;2023-01-19T00:10:09;11.48;;;7.03;;
5414;SDS011;2730;51.512;7.504;2023-01-19T00:12:37;11.80;;;7.47;;
5414;SDS011;2730;51.512;7.504;2023-01-19T00:15:04;13.02;;;7.03;;
5414;SDS011;2730;51.512;7.504;2023-01-19T00:17:32;10.65;;;6.22;;
5414;SDS011;2730;51.512;7.504;2023-01-19T00:19:59;11.68;;;6.38;;
5414;SDS011;2730;51.512;7.504;2023-01-19T00:22:26;11.80;;;6.60;;
5414;SDS011;2730;51.512;7.504;2023-01-19T00:24:53;10.88;;;6.75;;
5414;SDS011;2730;51.512;7.504;2023-01-19T00:27:21;11.45;;;6.10;;
5414;SDS011;2730;51.512;7.504;2023-01-19T00:29:48;11.35;;;7.20;;
5414;SDS011;2730;51.512;7.504;2023-01-19T00:32:15;11.88;;;6.43;;
5414;SDS011;2730;51.512;7.504;2023-01-19T00:34:44;10.70;;;6.90;;
5414;SDS011;2730;51.512;7.504;2023-01-19T00:37:13;18.40;;;6.47;;
5414;SDS011;2730;51.512;7.504;2023-01-19T00:39:40;13.32;;;7.10;;
5414;SDS011;2730;51.512;7.504;2023-01-19T06:00:47;11.10;;;4.97;;
5414;SDS011;2730;51.512;7.504;2023-01-19T06:03:14;5.22;;;3.90;;
5414;SDS011;2730;51.512;7.504;2023-01-19T06:05:41;8.82;;;4.90;;
5414;SDS011;2730;51.512;7.504;2023-01-19T06:08:08;8.82;;;5.40;;
5414;SDS011;2730;51.512;7.504;2023-01-19T06:10:35;5.47;;;4.40;;
5414;SDS011;2730;51.512;7.504;2023-01-19T06:13:02;10.63;;;5.20;;
5414;SDS011;2730;51.512;7.504;2023-01-19T06:15:29;8.48;;;3.90;;
5414;SDS011;2730;51.512;7.504;2023-01-19T06:17:57;6.20;;;4.40;;
5414;SDS011;2730;51.512;7.504;2023-01-19T06:20:24;8.07;;;4.90;;
5414;SDS011;2730;51.512;7.504;2023-01-19T06:22:51;4.70;;;4.05;;
5414;SDS011;2730;51.512;7.504;2023-01-19T06:25:17;5.22;;;4.68;;
5414;SDS011;2730;51.512;7.504;2023-01-19T06:27:44;8.52;;;4.05;;
5414;SDS011;2730;51.512;7.504;2023-01-19T06:30:11;5.93;;;4.43;;
5414;SDS011;2730;51.512;7.504;2023-01-19T06:32:39;6.50;;;4.57;;
5414;SDS011;2730;51.512;7.504;2023-01-19T06:35:07;6.75;;;4.10;;
5414;SDS011;2730;51.512;7.504;2023-01-19T06:37:35;7.63;;;4.15;;
5414;SDS011;2730;51.512;7.504;2023-01-19T06:40:02;6.78;;;4.00;;
5414;SDS011;2730;51.512;7.504;2023-01-19T06:42:29;7.05;;;4.68;;
5414;SDS011;2730;51.512;7.504;2023-01-19T06:44:56;5.80;;;3.92;;
5414;SDS011;2730;51.512;7.504;2023-01-19T06:47:23;8.90;;;5.28;;
5414;SDS011;2730;51.512;7.504;2023-01-19T06:49:50;7.07;;;4.82;;
5414;SDS011;2730;51.512;7.504;2023-01-19T06:52:18;4.90;;;4.18;;
5414;SDS011;2730;51.512;7.504;2023-01-19T06:54:45;4.82;;;3.67;;
5414;SDS011;2730;51.512;7.504;2023-01-19T06:57:12;7.10;;;3.70;;
5414;SDS011;2730;51.512;7.504;2023-01-19T06:59:39;6.22;;;3.60;;
5414;SDS011;2730;51.512;7.504;2023-01-19T07:02:08;5.90;;;3.50;;
5414;SDS011;2730;51.512;7.504;2023-01-19T07:04:35;6.15;;;3.30;;
5414;SDS011;2730;51.512;7.504;2023-01-19T07:07:02;4.43;;;3.60;;
5414;SDS011;2730;51.512;7.504;2023-01-19T07:09:30;6.43;;;3.42;;
5414;SDS011;2730;51.512;7.504;2023-01-19T07:11:57;4.97;;;2.90;;
5414;SDS011;2730;51.512;7.504;2023-01-19T07:14:24;3.97;;;3.58;;
5414;SDS011;2730;51.512;7.504;2023-01-19T07:16:55;7.40;;;3.67;;
5414;SDS011;2730;51.512;7.504;2023-01-19T07:19:21;4.85;;;2.83;;
5414;SDS011;2730;51.512;7.504;2023-01-19T07:21:49;3.28;;;2.97;;
5414;SDS011;2730;51.512;7.504;2023-01-19T07:24:16;4.75;;;2.90;;
5414;SDS011;2730;51.512;7.504;2023-01-19T07:26:44;4.03;;;3.22;;
5414;SDS011;2730;51.512;7.504;2023-01-19T07:29:11;5.43;;;3.03;;
5414;SDS011;2730;51.512;7.504;2023-01-19T07:31:38;5.05;;;3.15;;
5414;SDS011;2730;51.512;7.504;2023-01-19T07:34:05;3.03;;;2.55;;
5414;SDS011;2730;51.512;7.504;2023-01-19T07:36:32;3.58;;;3.22;;
5414;SDS011;2730;51.512;7.504;2023-01-19T07:38:59;2.90;;;2.60;;
5414;SDS011;2730;51.512;7.504;2023-01-19T07:41:26;4.47;;;3.00;;
5414;SDS011;2730;51.512;7.504;2023-01-19T07:43:54;7.88;;;3.72;;
5414;SDS011;2730;51.512;7.504;2023-01-19T07:46:21;9.02;;;3.67;;
5414;SDS011;2730;51.512;7.504;2023-01-19T07:48:48;4.30;;;3.03;;
5414;SDS011;2730;51.512;7.504;2023-01-19T07:51:15;4.15;;;2.95;;
5414;SDS011;2730;51.512;7.504;2023-01-19T07:53:43;5.32;;;3.13;;
5414;SDS011;2730;51.512;7.504;2023-01-19T07:56:10;4.82;;;3.58;;
5414;SDS011;2730;51.512;7.504;2023-01-19T07:58:37;4.00;;;3.60;;
5414;SDS011;2730;51.512;7.504;2023-01-19T08:01:07;4.70;;;3.60;;
5414;SDS011;2730;51.512;7.504;2023-01-19T08:03:34;3.75;;;3.20;;
5414;SDS011;2730;51.512;7.504;2023-01-19T08:06:02;5.53;;;3.05;;
5414;SDS011;2730;51.512;7.504;2023-01-19T08:08:30;5.13;;;3.50;;
5414;SDS011;2730;51.512;7.504;2023-01-19T08:10:57;5.20;;;4.10;;
5414;SDS011;2730;51.512;7.504;2023-01-19T08:13:25;5.68;;;4.00;;
5414;SDS011;2730;51.512;7.504;2023-01-19T08:15:52;7.82;;;3.72;;
5414;SDS011;2730;51.512;7.504;2023-01-19T08:18:21;10.15;;;4.50;;
5414;SDS011;2730;51.512;7.504;2023-01-19T08:20:48;7.15;;;3.55;;
5414;SDS011;2730;51.512;7.504;2023-01-19T08:23:15;8.48;;;5.10;;
5414;SDS011;2730;51.512;7.504;2023-01-19T08:25:43;9.82;;;5.45;;
5414;SDS011;2730;51.512;7.504;2023-01-19T08:28:11;10.20;;;5.30;;
5414;SDS011;2730;51.512;7.504;2023-01-19T08:30:39;9.80;;;5.10;;
5414;SDS011;2730;51.512;7.504;2023-01-19T08:33:07;16.15;;;6.80;;
5414;SDS011;2730;51.512;7.504;2023-01-19T08:35:36;11.93;;;6.10;;
5414;SDS011;2730;51.512;7.504;2023-01-19T08:38:04;13.98;;;4.75;;
5414;SDS011;2730;51.512;7.504;2023-01-19T08:40:32;8.82;;;5.55;;
5414;SDS011;2730;51.512;7.504;2023-01-19T08:43:00;10.75;;;6.47;;
5414;SDS011;2730;51.512;7.504;2023-01-19T08:45:30;13.38;;;7.72;;
5414;SDS011;2730;51.512;7.504;2023-01-19T08:47:57;15.85;;;7.72;;
5414;SDS011;2730;51.512;7.504;2023-01-19T08:50:24;18.65;;;9.00;;
5414;SDS011;2730;51.512;7.504;2023-01-19T08:52:54;19.75;;;7.50;;
5414;SDS011;2730;51.512;7.504;2023-01-19T08:55:21;16.70;;;7.88;;
5414;SDS011;2730;51.512;7.504;2023-01-19T08:57:49;17.05;;;7.65;;
5414;SDS011;2730;51.512;7.504;2023-01-19T09:00:17;13.50;;;7.00;;
5414;SDS011;2730;51.512;7.504;2023-01-19T09:02:44;15.25;;;7.68;;
5414;SDS011;2730;51.512;7.504;2023-01-19T09:05:11;14.95;;;7.13;;
5414;SDS011;2730;51.512;7.504;2023-01-19T09:07:38;12.88;;;6.82;;
5414;SDS011;2730;51.512;7.504;2023-01-19T09:10:07;12.95;;;7.38;;
5414;SDS011;2730;51.512;7.504;2023-01-19T09:12:35;25.42;;;8.70;;
5414;SDS011;2730;51.512;7.504;2023-01-19T09:15:02;21.90;;;7.72;;
5414;SDS011;2730;51.512;7.504;2023-01-19T09:17:29;11.07;;;6.85;;
5414;SDS011;2730;51.512;7.504;2023-01-19T09:19:56;18.60;;;8.30;;
5414;SDS011;2730;51.512;7.504;2023-01-19T09:22:23;20.65;;;8.48;;
5414;SDS011;2730;51.512;7.504;2023-01-19T09:24:50;19.20;;;9.13;;
5414;SDS011;2730;51.512;7.504;2023-01-19T09:27:18;21.90;;;7.20;;
5414;SDS011;2730;51.512;7.504;2023-01-19T09:29:45;18.30;;;8.05;;
5414;SDS011;2730;51.512;7.504;2023-01-19T09:32:16;26.45;;;10.13;;
5414;SDS011;2730;51.512;7.504;2023-01-19T09:34:43;21.88;;;9.75;;
5414;SDS011;2730;51.512;7.504;2023-01-19T09:37:10;21.73;;;11.57;;
5414;SDS011;2730;51.512;7.504;2023-01-19T09:39:38;24.20;;;11.30;;
5414;SDS011;2730;51.512;7.504;2023-01-19T09:42:05;21.55;;;11.35;;
5414;SDS011;2730;51.512;7.504;2023-01-19T09:44:50;21.08;;;10.93;;
5414;SDS011;2730;51.512;7.504;2023-01-19T09:47:19;21.50;;;10.43;;
5414;SDS011;2730;51.512;7.504;2023-01-19T09:49:51;26.40;;;9.82;;
5414;SDS011;2730;51.512;7.504;2023-01-19T09:52:22;27.80;;;11.63;;
5414;SDS011;2730;51.512;7.504;2023-01-19T09:54:51;25.75;;;11.85;;
5414;SDS011;2730;51.512;7.504;2023-01-19T09:57:20;27.08;;;12.30;;
5414;SDS011;2730;51.512;7.504;2023-01-19T09:59:47;26.75;;;12.00;;
5414;SDS011;2730;51.512;7.504;2023-01-19T10:02:27;25.85;;;11.88;;
5414;SDS011;2730;51.512;7.504;2023-01-19T10:05:00;25.90;;;13.55;;
5414;SDS011;2730;51.512;7.504;2023-01-19T10:07:33;30.70;;;12.63;;
5414;SDS011;2730;51.512;7.504;2023-01-19T10:10:12;28.27;;;12.90;;
5414;SDS011;2730;51.512;7.504;2023-01-19T10:12:50;25.67;;;12.25;;
5414;SDS011;2730;51.512;7.504;2023-01-19T10:15:27;25.00;;;11.95;;
5414;SDS011;2730;51.512;7.504;2023-01-19T10:18:05;27.00;;;12.98;;
5414;SDS011;2730;51.512;7.504;2023-01-19T10:20:42;22.73;;;12.13;;
5414;SDS011;2730;51.512;7.504;2023-01-19T10:23:18;25.75;;;12.43;;
5414;SDS011;2730;51.512;7.504;2023-01-19T10:25:50;26.27;;;12.88;;
5414;SDS011;2730;51.512;7.504;2023-01-19T10:28:18;24.73;;;12.30;;
5414;SDS011;2730;51.512;7.504;2023-01-19T10:30:51;27.73;;;12.43;;
5414;SDS011;2730;51.512;7.504;2023-01-19T10:33:20;26.75;;;11.65;;
5414;SDS011;2730;51.512;7.504;2023-01-19T10:35:46;25.83;;;12.10;;
5414;SDS011;2730;51.512;7.504;2023-01-19T10:38:14;30.73;;;12.65;;
5414;SDS011;2730;51.512;7.504;2023-01-19T10:40:47;25.90;;;12.48;;
5414;SDS011;2730;51.512;7.504;2023-01-19T10:43:35;21.52;;;10.77;;
5414;SDS011;2730;51.512;7.504;2023-01-19T10:46:06;34.38;;;12.52;;
5414;SDS011;2730;51.512;7.504;2023-01-19T10:48:41;28.27;;;12.77;;
5414;SDS011;2730;51.512;7.504;2023-01-19T10:51:09;24.95;;;11.90;;
5414;SDS011;2730;51.512;7.504;2023-01-19T10:53:36;27.70;;;14.10;;
5414;SDS011;2730;51.512;7.504;2023-01-19T10:56:14;24.35;;;11.52;;
5414;SDS011;2730;51.512;7.504;2023-01-19T10:58:42;35.17;;;15.02;;
5414;SDS011;2730;51.512;7.504;2023-01-19T11:01:16;27.70;;;13.18;;
5414;SDS011;2730;51.512;7.504;2023-01-19T11:03:44;25.95;;;12.68;;
5414;SDS011;2730;51.512;7.504;2023-01-19T11:06:18;27.63;;;13.20;;
5414;SDS011;2730;51.512;7.504;2023-01-19T11:08:47;31.00;;;15.27;;
5414;SDS011;2730;51.512;7.504;2023-01-19T11:11:16;37.75;;;14.98;;
5414;SDS011;2730;51.512;7.504;2023-01-19T11:13:43;31.73;;;14.35;;
5414;SDS011;2730;51.512;7.504;2023-01-19T11:16:28;30.83;;;15.20;;
5414;SDS011;2730;51.512;7.504;2023-01-19T11:18:59;31.77;;;15.45;;
5414;SDS011;2730;51.512;7.504;2023-01-19T11:21:27;31.60;;;14.18;;
5414;SDS011;2730;51.512;7.504;2023-01-19T11:23:57;35.78;;;14.52;;
5414;SDS011;2730;51.512;7.504;2023-01-19T11:26:31;35.38;;;15.27;;
5414;SDS011;2730;51.512;7.504;2023-01-19T11:29:00;28.08;;;13.77;;
5414;SDS011;2730;51.512;7.504;2023-01-19T11:31:33;30.00;;;14.00;;
5414;SDS011;2730;51.512;7.504;2023-01-19T11:34:01;32.22;;;16.00;;
5414;SDS011;2730;51.512;7.504;2023-01-19T11:36:29;37.50;;;14.57;;
5414;SDS011;2730;51.512;7.504;2023-01-19T11:38:59;37.60;;;15.00;;
5414;SDS011;2730;51.512;7.504;2023-01-19T11:41:38;37.97;;;15.98;;
5414;SDS011;2730;51.512;7.504;2023-01-19T11:44:08;45.55;;;16.90;;
5414;SDS011;2730;51.512;7.504;2023-01-19T11:46:43;39.83;;;16.55;;
5414;SDS011;2730;51.512;7.504;2023-01-19T11:49:12;51.03;;;18.27;;
5414;SDS011;2730;51.512;7.504;2023-01-19T11:51:46;41.42;;;17.30;;
5414;SDS011;2730;51.512;7.504;2023-01-19T11:54:18;37.70;;;16.25;;
5414;SDS011;2730;51.512;7.504;2023-01-19T11:56:48;35.00;;;14.98;;
5414;SDS011;2730;51.512;7.504;2023-01-19T11:59:17;48.55;;;17.70;;
5414;SDS011;2730;51.512;7.504;2023-01-19T12:01:46;42.25;;;14.25;;
5414;SDS011;2730;51.512;7.504;2023-01-19T12:04:19;41.55;;;16.13;;
5414;SDS011;2730;51.512;7.504;2023-01-19T12:06:53;40.30;;;17.30;;
5414;SDS011;2730;51.512;7.504;2023-01-19T12:09:22;30.98;;;15.43;;
5414;SDS011;2730;51.512;7.504;2023-01-19T12:11:52;35.22;;;14.10;;
5414;SDS011;2730;51.512;7.504;2023-01-19T12:14:24;39.70;;;16.98;;
5414;SDS011;2730;51.512;7.504;2023-01-19T12:16:56;43.38;;;16.55;;
5414;SDS011;2730;51.512;7.504;2023-01-19T12:19:28;36.35;;;16.85;;
5414;SDS011;2730;51.512;7.504;2023-01-19T12:22:05;34.40;;;16.08;;
5414;SDS011;2730;51.512;7.504;2023-01-19T12:24:36;41.88;;;17.90;;
5414;SDS011;2730;51.512;7.504;2023-01-19T12:27:11;36.67;;;15.85;;
5414;SDS011;2730;51.512;7.504;2023-01-19T12:29:46;40.50;;;16.45;;
5414;SDS011;2730;51.512;7.504;2023-01-19T12:32:18;41.38;;;15.15;;
5414;SDS011;2730;51.512;7.504;2023-01-19T12:34:57;40.92;;;16.75;;
5414;SDS011;2730;51.512;7.504;2023-01-19T12:37:28;40.42;;;17.50;;
5414;SDS011;2730;51.512;7.504;2023-01-19T12:40:01;39.20;;;17.13;;
5414;SDS011;2730;51.512;7.504;2023-01-19T12:42:42;37.05;;;16.73;;
5414;SDS011;2730;51.512;7.504;2023-01-19T12:45:12;36.80;;;15.50;;
5414;SDS011;2730;51.512;7.504;2023-01-19T12:47:42;40.50;;;15.82;;
5414;SDS011;2730;51.512;7.504;2023-01-19T12:50:16;35.05;;;14.90;;
5414;SDS011;2730;51.512;7.504;2023-01-19T12:52:46;39.03;;;16.83;;
5414;SDS011;2730;51.512;7.504;2023-01-19T12:55:21;41.97;;;16.98;;
5414;SDS011;2730;51.512;7.504;2023-01-19T12:57:52;41.83;;;16.65;;
5414;SDS011;2730;51.512;7.504;2023-01-19T13:00:31;50.53;;;17.08;;
5414;SDS011;2730;51.512;7.504;2023-01-19T13:03:01;43.85;;;17.75;;
5414;SDS011;2730;51.512;7.504;2023-01-19T13:08:28;46.33;;;17.67;;
5414;SDS011;2730;51.512;7.504;2023-01-19T13:16:59;51.72;;;17.63;;
5414;SDS011;2730;51.512;7.504;2023-01-19T13:19:40;47.83;;;18.27;;
5414;SDS011;2730;51.512;7.504;2023-01-19T13:25:12;44.78;;;16.30;;
5414;SDS011;2730;51.512;7.504;2023-01-19T13:27:46;47.75;;;17.00;;
5414;SDS011;2730;51.512;7.504;2023-01-19T13:30:14;37.20;;;16.40;;
5414;SDS011;2730;51.512;7.504;2023-01-19T13:32:44;37.75;;;15.02;;
5414;SDS011;2730;51.512;7.504;2023-01-19T13:35:13;40.03;;;17.13;;
5414;SDS011;2730;51.512;7.504;2023-01-19T13:37:44;37.67;;;14.82;;
5414;SDS011;2730;51.512;7.504;2023-01-19T13:40:15;36.58;;;14.68;;
5414;SDS011;2730;51.512;7.504;2023-01-19T13:42:43;36.17;;;15.00;;
5414;SDS011;2730;51.512;7.504;2023-01-19T13:45:15;42.42;;;15.80;;
5414;SDS011;2730;51.512;7.504;2023-01-19T13:47:46;32.38;;;14.73;;
5414;SDS011;2730;51.512;7.504;2023-01-19T13:50:19;39.55;;;19.48;;
5414;SDS011;2730;51.512;7.504;2023-01-19T13:52:47;52.58;;;21.05;;
5414;SDS011;2730;51.512;7.504;2023-01-19T13:55:17;45.50;;;18.83;;
5414;SDS011;2730;51.512;7.504;2023-01-19T13:57:45;42.85;;;17.15;;
5414;SDS011;2730;51.512;7.504;2023-01-19T14:00:17;43.30;;;16.30;;
5414;SDS011;2730;51.512;7.504;2023-01-19T14:02:51;37.45;;;15.20;;
5414;SDS011;2730;51.512;7.504;2023-01-19T14:05:26;33.92;;;14.80;;
5414;SDS011;2730;51.512;7.504;2023-01-19T14:08:01;36.78;;;16.00;;
5414;SDS011;2730;51.512;7.504;2023-01-19T14:10:29;44.38;;;16.63;;
5414;SDS011;2730;51.512;7.504;2023-01-19T14:12:57;37.90;;;14.27;;
5414;SDS011;2730;51.512;7.504;2023-01-19T14:15:24;41.20;;;15.38;;
5414;SDS011;2730;51.512;7.504;2023-01-19T14:18:06;47.17;;;15.30;;
5414;SDS011;2730;51.512;7.504;2023-01-19T14:20:51;38.13;;;13.00;;
5414;SDS011;2730;51.512;7.504;2023-01-19T14:26:03;40.33;;;15.88;;
5414;SDS011;2730;51.512;7.504;2023-01-19T14:28:34;30.83;;;12.60;;
5414;SDS011;2730;51.512;7.504;2023-01-19T14:31:18;28.90;;;13.50;;
5414;SDS011;2730;51.512;7.504;2023-01-19T14:33:46;43.90;;;15.48;;
5414;SDS011;2730;51.512;7.504;2023-01-19T14:36:24;30.65;;;13.50;;
5414;SDS011;2730;51.512;7.504;2023-01-19T14:38:54;40.58;;;15.40;;
5414;SDS011;2730;51.512;7.504;2023-01-19T14:41:25;35.40;;;14.85;;
5414;SDS011;2730;51.512;7.504;2023-01-19T14:43:55;37.17;;;15.02;;
5414;SDS011;2730;51.512;7.504;2023-01-19T14:46:24;41.53;;;14.65;;
5414;SDS011;2730;51.512;7.504;2023-01-19T14:48:52;26.50;;;12.50;;
5414;SDS011;2730;51.512;7.504;2023-01-19T14:51:25;34.30;;;14.40;;
5414;SDS011;2730;51.512;7.504;2023-01-19T14:53:53;40.05;;;14.18;;
5414;SDS011;2730;51.512;7.504;2023-01-19T14:56:23;39.10;;;14.73;;
5414;SDS011;2730;51.512;7.504;2023-01-19T14:58:51;35.60;;;13.98;;
5414;SDS011;2730;51.512;7.504;2023-01-19T15:01:18;33.70;;;14.95;;
5414;SDS011;2730;51.512;7.504;2023-01-19T15:03:44;26.15;;;12.50;;
5414;SDS011;2730;51.512;7.504;2023-01-19T15:06:12;26.10;;;12.75;;
5414;SDS011;2730;51.512;7.504;2023-01-19T15:08:40;28.55;;;14.20;;
5414;SDS011;2730;51.512;7.504;2023-01-19T15:11:09;40.55;;;13.05;;
5414;SDS011;2730;51.512;7.504;2023-01-19T15:13:42;35.72;;;13.30;;
5414;SDS011;2730;51.512;7.504;2023-01-19T15:16:10;29.42;;;12.63;;
5414;SDS011;2730;51.512;7.504;2023-01-19T15:18:36;24.60;;;12.48;;
5414;SDS011;2730;51.512;7.504;2023-01-19T15:21:03;28.55;;;11.23;;
5414;SDS011;2730;51.512;7.504;2023-01-19T15:23:31;23.70;;;12.05;;
5414;SDS011;2730;51.512;7.504;2023-01-19T15:26:00;27.40;;;10.75;;
5414;SDS011;2730;51.512;7.504;2023-01-19T15:28:28;23.73;;;11.85;;
5414;SDS011;2730;51.512;7.504;2023-01-19T15:30:56;23.92;;;9.68;;
5414;SDS011;2730;51.512;7.504;2023-01-19T15:33:25;22.75;;;10.48;;
5414;SDS011;2730;51.512;7.504;2023-01-19T15:35:54;25.17;;;10.88;;
5414;SDS011;2730;51.512;7.504;2023-01-19T15:38:21;29.63;;;9.98;;
5414;SDS011;2730;51.512;7.504;2023-01-19T15:40:48;19.48;;;10.43;;
5414;SDS011;2730;51.512;7.504;2023-01-19T15:43:17;31.02;;;11.60;;
5414;SDS011;2730;51.512;7.504;2023-01-19T15:45:45;30.45;;;11.63;;
5414;SDS011;2730;51.512;7.504;2023-01-19T15:48:15;24.83;;;10.57;;
5414;SDS011;2730;51.512;7.504;2023-01-19T15:50:43;22.27;;;11.32;;
5414;SDS011;2730;51.512;7.504;2023-01-19T15:53:12;19.95;;;9.55;;
5414;SDS011;2730;51.512;7.504;2023-01-19T15:55:40;19.30;;;9.20;;
5414;SDS011;2730;51.512;7.504;2023-01-19T15:58:07;21.60;;;9.75;;
5414;SDS011;2730;51.512;7.504;2023-01-19T16:00:35;19.95;;;9.40;;
5414;SDS011;2730;51.512;7.504;2023-01-19T16:03:02;23.45;;;10.25;;
5414;SDS011;2730;51.512;7.504;2023-01-19T16:05:29;23.92;;;9.10;;
5414;SDS011;2730;51.512;7.504;2023-01-19T16:07:56;17.23;;;8.57;;
5414;SDS011;2730;51.512;7.504;2023-01-19T16:10:23;26.98;;;11.65;;
5414;SDS011;2730;51.512;7.504;2023-01-19T16:12:49;29.40;;;10.30;;
5414;SDS011;2730;51.512;7.504;2023-01-19T16:15:16;34.05;;;11.13;;
5414;SDS011;2730;51.512;7.504;2023-01-19T16:17:45;29.88;;;10.95;;
5414;SDS011;2730;51.512;7.504;2023-01-19T16:20:11;27.92;;;10.60;;
5414;SDS011;2730;51.512;7.504;2023-01-19T16:22:38;33.55;;;10.25;;
5414;SDS011;2730;51.512;7.504;2023-01-19T16:25:05;21.63;;;11.25;;
5414;SDS011;2730;51.512;7.504;2023-01-19T16:27:32;28.17;;;9.95;;
5414;SDS011;2730;51.512;7.504;2023-01-19T16:29:59;33.47;;;10.85;;
5414;SDS011;2730;51.512;7.504;2023-01-19T16:32:29;27.27;;;11.38;;
5414;SDS011;2730;51.512;7.504;2023-01-19T16:34:58;23.73;;;10.00;;
5414;SDS011;2730;51.512;7.504;2023-01-19T16:37:25;35.95;;;11.95;;
5414;SDS011;2730;51.512;7.504;2023-01-19T16:39:51;26.92;;;10.57;;
5414;SDS011;2730;51.512;7.504;2023-01-19T16:42:18;31.90;;;12.90;;
5414;SDS011;2730;51.512;7.504;2023-01-19T16:44:45;27.13;;;12.15;;
5414;SDS011;2730;51.512;7.504;2023-01-19T16:47:12;27.23;;;11.68;;
5414;SDS011;2730;51.512;7.504;2023-01-19T16:49:39;28.85;;;12.10;;
5414;SDS011;2730;51.512;7.504;2023-01-19T16:52:07;28.15;;;11.88;;
5414;SDS011;2730;51.512;7.504;2023-01-19T16:54:33;33.53;;;12.38;;
5414;SDS011;2730;51.512;7.504;2023-01-19T16:57:00;28.85;;;11.30;;
5414;SDS011;2730;51.512;7.504;2023-01-19T16:59:27;29.50;;;12.60;;
5414;SDS011;2730;51.512;7.504;2023-01-19T17:01:54;39.63;;;13.07;;
5414;SDS011;2730;51.512;7.504;2023-01-19T17:04:22;30.73;;;12.75;;
5414;SDS011;2730;51.512;7.504;2023-01-19T17:06:48;30.70;;;12.32;;
5414;SDS011;2730;51.512;7.504;2023-01-19T17:09:17;32.50;;;12.27;;
5414;SDS011;2730;51.512;7.504;2023-01-19T17:11:44;32.63;;;13.10;;
5414;SDS011;2730;51.512;7.504;2023-01-19T17:14:11;37.70;;;13.45;;
5414;SDS011;2730;51.512;7.504;2023-01-19T17:16:39;24.48;;;11.55;;
5414;SDS011;2730;51.512;7.504;2023-01-19T17:19:07;27.63;;;12.25;;
5414;SDS011;2730;51.512;7.504;2023-01-19T17:21:37;25.25;;;11.85;;
5414;SDS011;2730;51.512;7.504;2023-01-19T17:24:04;23.58;;;11.55;;
5414;SDS011;2730;51.512;7.504;2023-01-19T17:26:33;33.10;;;12.55;;
5414;SDS011;2730;51.512;7.504;2023-01-19T17:29:00;28.77;;;11.85;;
5414;SDS011;2730;51.512;7.504;2023-01-19T17:31:28;52.85;;;13.55;;
5414;SDS011;2730;51.512;7.504;2023-01-19T17:33:56;38.95;;;13.45;;
5414;SDS011;2730;51.512;7.504;2023-01-19T17:36:24;28.73;;;12.95;;
5414;SDS011;2730;51.512;7.504;2023-01-19T17:38:52;50.05;;;16.30;;
5414;SDS011;2730;51.512;7.504;2023-01-19T17:41:37;30.75;;;13.82;;
5414;SDS011;2730;51.512;7.504;2023-01-19T17:44:04;27.35;;;12.30;;
5414;SDS011;2730;51.512;7.504;2023-01-19T17:46:33;30.05;;;12.60;;
5414;SDS011;2730;51.512;7.504;2023-01-19T17:49:02;25.83;;;12.18;;
5414;SDS011;2730;51.512;7.504;2023-01-19T17:51:30;29.63;;;11.73;;
5414;SDS011;2730;51.512;7.504;2023-01-19T17:53:57;37.85;;;13.98;;
5414;SDS011;2730;51.512;7.504;2023-01-19T17:56:25;34.03;;;13.48;;
5414;SDS011;2730;51.512;7.504;2023-01-19T17:58:55;28.02;;;12.00;;
5414;SDS011;2730;51.512;7.504;2023-01-19T18:01:23;22.67;;;11.77;;
5414;SDS011;2730;51.512;7.504;2023-01-19T18:03:51;30.73;;;12.48;;
5414;SDS011;2730;51.512;7.504;2023-01-19T18:06:19;28.42;;;11.80;;
5414;SDS011;2730;51.512;7.504;2023-01-19T18:08:46;35.50;;;11.95;;
5414;SDS011;2730;51.512;7.504;2023-01-19T18:11:14;36.83;;;12.25;;
5414;SDS011;2730;51.512;7.504;2023-01-19T18:13:43;37.70;;;16.10;;
5414;SDS011;2730;51.512;7.504;2023-01-19T18:16:15;37.70;;;15.63;;
5414;SDS011;2730;51.512;7.504;2023-01-19T18:18:43;32.53;;;13.73;;
5414;SDS011;2730;51.512;7.504;2023-01-19T18:21:10;38.30;;;14.60;;
5414;SDS011;2730;51.512;7.504;2023-01-19T18:23:39;30.83;;;13.98;;
5414;SDS011;2730;51.512;7.504;2023-01-19T18:26:07;39.78;;;12.10;;
5414;SDS011;2730;51.512;7.504;2023-01-19T18:28:36;37.60;;;15.35;;
5414;SDS011;2730;51.512;7.504;2023-01-19T18:31:05;33.42;;;13.05;;
5414;SDS011;2730;51.512;7.504;2023-01-19T18:33:33;43.05;;;15.63;;
5414;SDS011;2730;51.512;7.504;2023-01-19T18:36:00;39.00;;;15.88;;
5414;SDS011;2730;51.512;7.504;2023-01-19T18:38:27;34.97;;;13.27;;
5414;SDS011;2730;51.512;7.504;2023-01-19T18:41:01;33.53;;;13.52;;
5414;SDS011;2730;51.512;7.504;2023-01-19T18:43:28;30.17;;;11.68;;
5414;SDS011;2730;51.512;7.504;2023-01-19T18:45:56;30.13;;;11.45;;
5414;SDS011;2730;51.512;7.504;2023-01-19T18:48:23;30.55;;;11.88;;
5414;SDS011;2730;51.512;7.504;2023-01-19T18:50:51;26.95;;;11.63;;
5414;SDS011;2730;51.512;7.504;2023-01-19T18:53:18;26.77;;;9.70;;
5414;SDS011;2730;51.512;7.504;2023-01-19T18:55:49;26.10;;;11.55;;
5414;SDS011;2730;51.512;7.504;2023-01-19T18:58:16;26.58;;;11.00;;
5414;SDS011;2730;51.512;7.504;2023-01-19T19:00:43;26.92;;;11.50;;
5414;SDS011;2730;51.512;7.504;2023-01-19T19:03:10;28.77;;;12.45;;
5414;SDS011;2730;51.512;7.504;2023-01-19T19:05:37;24.30;;;11.88;;
5414;SDS011;2730;51.512;7.504;2023-01-19T19:08:05;28.80;;;11.20;;
5414;SDS011;2730;51.512;7.504;2023-01-19T19:10:32;28.30;;;12.93;;
5414;SDS011;2730;51.512;7.504;2023-01-19T19:12:59;28.63;;;12.75;;
5414;SDS011;2730;51.512;7.504;2023-01-19T19:15:26;31.38;;;13.68;;
5414;SDS011;2730;51.512;7.504;2023-01-19T19:17:53;33.45;;;13.75;;
5414;SDS011;2730;51.512;7.504;2023-01-19T19:20:20;42.80;;;13.13;;
5414;SDS011;2730;51.512;7.504;2023-01-19T19:22:47;27.33;;;13.35;;
5414;SDS011;2730;51.512;7.504;2023-01-19T19:25:17;31.30;;;14.57;;
5414;SDS011;2730;51.512;7.504;2023-01-19T19:27:44;33.72;;;13.93;;
5414;SDS011;2730;51.512;7.504;2023-01-19T19:30:15;25.33;;;11.52;;
5414;SDS011;2730;51.512;7.504;2023-01-19T19:32:42;30.83;;;11.75;;
5414;SDS011;2730;51.512;7.504;2023-01-19T19:35:09;30.85;;;13.00;;
5414;SDS011;2730;51.512;7.504;2023-01-19T19:37:36;34.78;;;13.15;;
5414;SDS011;2730;51.512;7.504;2023-01-19T19:40:03;26.73;;;12.52;;
5414;SDS011;2730;51.512;7.504;2023-01-19T19:42:32;33.30;;;13.63;;
5414;SDS011;2730;51.512;7.504;2023-01-19T19:45:01;24.50;;;11.75;;
5414;SDS011;2730;51.512;7.504;2023-01-19T19:47:27;23.70;;;12.18;;
5414;SDS011;2730;51.512;7.504;2023-01-19T19:49:55;22.63;;;11.30;;
5414;SDS011;2730;51.512;7.504;2023-01-19T19:52:23;35.42;;;12.57;;
5414;SDS011;2730;51.512;7.504;2023-01-19T19:54:51;23.55;;;11.25;;
5414;SDS011;2730;51.512;7.504;2023-01-19T19:57:18;22.85;;;10.73;;
5414;SDS011;2730;51.512;7.504;2023-01-19T19:59:46;29.75;;;11.20;;
5414;SDS011;2730;51.512;7.504;2023-01-19T20:02:13;33.63;;;12.15;;
5414;SDS011;2730;51.512;7.504;2023-01-19T20:04:40;23.98;;;12.18;;
5414;SDS011;2730;51.512;7.504;2023-01-19T20:07:07;22.10;;;10.65;;
5414;SDS011;2730;51.512;7.504;2023-01-19T20:09:34;28.17;;;11.10;;
5414;SDS011;2730;51.512;7.504;2023-01-19T20:12:01;30.17;;;10.70;;
5414;SDS011;2730;51.512;7.504;2023-01-19T20:14:28;28.50;;;10.35;;
5414;SDS011;2730;51.512;7.504;2023-01-19T20:16:56;26.98;;;11.50;;
5414;SDS011;2730;51.512;7.504;2023-01-19T20:19:23;25.23;;;11.20;;
5414;SDS011;2730;51.512;7.504;2023-01-19T20:21:50;28.65;;;9.80;;
5414;SDS011;2730;51.512;7.504;2023-01-19T20:24:17;24.63;;;11.70;;
5414;SDS011;2730;51.512;7.504;2023-01-19T20:26:46;32.42;;;11.38;;
5414;SDS011;2730;51.512;7.504;2023-01-19T20:29:15;25.90;;;12.60;;
5414;SDS011;2730;51.512;7.504;2023-01-19T20:31:42;21.02;;;10.15;;
5414;SDS011;2730;51.512;7.504;2023-01-19T20:34:12;24.40;;;10.93;;
5414;SDS011;2730;51.512;7.504;2023-01-19T20:36:41;29.50;;;10.75;;
5414;SDS011;2730;51.512;7.504;2023-01-19T20:39:13;22.88;;;10.25;;